createdAt,value
2018-12-14T00:03:40.473Z,18.80
2018-12-14T00:08:47.445Z,23.93
2018-12-14T00:13:51.801Z,29.33
2018-12-14T00:18:57.246Z,24.40
2018-12-14T00:24:02.930Z,28.27
2018-12-14T00:29:07.198Z,22.00
2018-12-14T00:34:12.254Z,28.17
2018-12-14T00:39:16.686Z,21.93
2018-12-14T00:44:21.437Z,20.67
2018-12-14T00:49:26.507Z,21.47
2018-12-14T00:54:30.889Z,24.40
2018-12-14T00:59:36.035Z,26.30
2018-12-14T01:04:40.194Z,24.27
2018-12-14T01:09:45.978Z,21.73
2018-12-14T01:14:51.241Z,30.17
2018-12-14T01:19:55.199Z,22.83
2018-12-14T01:25:01.707Z,24.43
2018-12-14T01:30:05.958Z,21.43
2018-12-14T01:35:09.801Z,26.93
2018-12-14T01:40:13.526Z,26.17
2018-12-14T01:45:17.541Z,24.20
2018-12-14T01:50:21.651Z,31.77
2018-12-14T01:55:25.883Z,23.83
2018-12-14T02:00:29.677Z,19.37
2018-12-14T02:05:33.698Z,21.33
2018-12-14T02:10:37.914Z,26.93
2018-12-14T02:15:41.726Z,25.60
2018-12-14T02:20:45.741Z,23.20
2018-12-14T02:25:49.842Z,27.13
2018-12-14T02:30:53.962Z,29.23
2018-12-14T02:35:58.226Z,26.10
2018-12-14T02:41:02.311Z,29.43
2018-12-14T02:46:06.441Z,25.87
2018-12-14T02:51:10.220Z,28.60
2018-12-14T02:56:14.244Z,29.13
2018-12-14T03:01:18.358Z,23.00
2018-12-14T03:06:22.474Z,27.27
2018-12-14T03:11:26.584Z,26.97
2018-12-14T03:16:30.739Z,29.83
2018-12-14T03:21:34.859Z,25.03
2018-12-14T03:26:38.971Z,21.70
2018-12-14T03:31:43.108Z,26.17
2018-12-14T03:36:47.222Z,24.23
2018-12-14T03:41:51.330Z,25.87
2018-12-14T03:46:55.458Z,26.03
2018-12-14T03:51:59.574Z,27.63
2018-12-14T03:57:08.458Z,24.53
2018-12-14T04:02:12.606Z,24.83
2018-12-14T04:07:16.417Z,29.90
2018-12-14T04:12:20.463Z,26.63
2018-12-14T04:17:24.580Z,21.80
2018-12-14T04:22:28.706Z,23.37
2018-12-14T04:27:32.813Z,24.93
2018-12-14T04:32:36.937Z,27.97
2018-12-14T04:37:41.052Z,26.57
2018-12-14T04:42:48.747Z,23.93
2018-12-14T04:47:51.132Z,25.30
2018-12-14T04:52:55.245Z,23.00
2018-12-14T04:57:59.378Z,28.43
2018-12-14T05:03:03.347Z,22.30
2018-12-14T05:08:07.972Z,25.83
2018-12-14T05:13:12.698Z,22.57
2018-12-14T05:18:16.802Z,21.80
2018-12-14T05:23:20.950Z,27.43
2018-12-14T05:28:25.094Z,25.33
2018-12-14T05:33:29.211Z,27.20
2018-12-14T05:38:33.359Z,26.00
2018-12-14T05:43:37.466Z,24.60
2018-12-14T05:48:41.583Z,26.17
2018-12-14T05:53:45.369Z,21.67
2018-12-14T05:58:49.441Z,23.00
2018-12-14T06:03:53.774Z,25.80
2018-12-14T06:09:05.868Z,21.60
2018-12-14T06:14:10.132Z,29.63
2018-12-14T06:19:14.279Z,25.40
2018-12-14T06:24:18.389Z,21.13
2018-12-14T06:29:22.499Z,24.87
2018-12-14T06:34:26.612Z,26.73
2018-12-14T06:39:30.763Z,28.50
2018-12-14T06:44:34.878Z,28.33
2018-12-14T06:49:39.092Z,20.67
2018-12-14T06:54:43.201Z,24.30
2018-12-14T06:59:47.318Z,23.53
2018-12-14T07:04:51.454Z,22.27
2018-12-14T07:09:55.585Z,25.00
2018-12-14T07:14:59.718Z,22.77
2018-12-14T07:20:04.049Z,23.60
2018-12-14T07:25:08.325Z,27.17
2018-12-14T07:30:12.462Z,24.57
2018-12-14T07:35:16.588Z,26.17
2018-12-14T07:40:21.394Z,27.83
2018-12-14T07:45:25.189Z,31.70
2018-12-14T07:50:28.899Z,28.13
2018-12-14T07:55:32.937Z,26.30
2018-12-14T08:00:37.048Z,22.07
2018-12-14T08:05:41.153Z,22.67
2018-12-14T08:10:45.002Z,24.97
2018-12-14T08:15:49.454Z,32.17
2018-12-14T08:20:53.574Z,23.43
2018-12-14T08:25:57.942Z,24.03
2018-12-14T08:31:02.042Z,25.17
2018-12-14T08:36:06.061Z,25.70
2018-12-14T08:41:10.086Z,32.57
2018-12-14T08:46:15.421Z,28.80
2018-12-14T08:51:19.746Z,25.63
2018-12-14T08:56:26.321Z,30.00
2018-12-14T09:01:30.065Z,29.13
2018-12-14T09:06:34.204Z,26.93
2018-12-14T09:11:38.223Z,24.53
2018-12-14T09:16:43.138Z,23.27
2018-12-14T09:21:46.859Z,27.63
2018-12-14T09:26:50.560Z,21.73
2018-12-14T09:31:54.302Z,24.43
2018-12-14T09:36:58.023Z,22.00
2018-12-14T09:42:02.281Z,21.20
2018-12-14T09:47:06.058Z,19.87
2018-12-14T09:52:10.905Z,23.57
2018-12-14T09:57:16.696Z,19.00
2018-12-14T10:02:20.605Z,19.17
2018-12-14T10:07:24.322Z,23.23
2018-12-14T10:12:28.034Z,17.60
2018-12-14T10:17:32.030Z,18.03
2018-12-14T10:22:41.378Z,21.23
2018-12-14T10:27:41.525Z,21.60
2018-12-14T10:32:45.662Z,20.53
2018-12-14T10:37:49.503Z,21.77
2018-12-14T10:42:55.085Z,15.43
2018-12-14T10:47:59.956Z,18.53
2018-12-14T10:53:08.571Z,15.57
2018-12-14T10:58:13.573Z,17.80
2018-12-14T11:03:18.048Z,20.57
2018-12-14T11:08:23.718Z,18.27
2018-12-14T11:13:27.510Z,16.63
2018-12-14T11:18:32.483Z,18.13
2018-12-14T11:23:38.203Z,17.83
2018-12-14T11:28:43.238Z,18.00
2018-12-14T11:33:47.982Z,15.53
2018-12-14T11:38:53.044Z,23.60
2018-12-14T11:43:58.013Z,18.17
2018-12-14T11:49:03.037Z,16.70
2018-12-14T11:54:07.111Z,16.47
2018-12-14T11:59:10.991Z,15.33
2018-12-14T12:04:16.091Z,15.33
2018-12-14T12:09:21.556Z,17.87
2018-12-14T12:14:27.138Z,16.40
2018-12-14T12:19:31.963Z,14.50
2018-12-14T12:24:36.955Z,18.03
2018-12-14T12:29:40.874Z,19.07
2018-12-14T12:34:44.669Z,19.60
2018-12-14T12:39:48.388Z,15.67
2018-12-14T12:44:52.395Z,14.70
2018-12-14T12:49:56.526Z,14.60
2018-12-14T12:55:00.325Z,15.60
2018-12-14T13:00:04.675Z,16.67
2018-12-14T13:05:09.284Z,15.33
2018-12-14T13:10:13.317Z,17.70
2018-12-14T13:15:17.491Z,16.03
2018-12-14T13:20:21.287Z,18.30
2018-12-14T13:25:24.983Z,17.30
2018-12-14T13:30:28.673Z,14.50
2018-12-14T13:35:32.386Z,15.40
2018-12-14T13:40:36.114Z,17.33
2018-12-14T13:45:40.153Z,17.37
2018-12-14T13:50:44.032Z,15.67
2018-12-14T13:55:47.743Z,16.97
2018-12-14T14:00:51.437Z,19.97
2018-12-14T14:05:55.161Z,19.17
2018-12-14T14:10:58.881Z,17.13
2018-12-14T14:16:02.707Z,14.90
2018-12-14T14:21:06.638Z,16.17
2018-12-14T14:26:10.570Z,18.10
2018-12-14T14:31:15.385Z,15.50
2018-12-14T14:36:19.653Z,16.97
2018-12-14T14:41:23.410Z,15.20
2018-12-14T14:46:27.421Z,17.40
2018-12-14T14:51:31.584Z,16.47
2018-12-14T14:56:36.113Z,21.03
2018-12-14T15:01:42.320Z,16.17
2018-12-14T15:06:47.267Z,16.70
2018-12-14T15:11:52.639Z,15.93
2018-12-14T15:16:57.093Z,15.53
2018-12-14T15:22:04.749Z,14.30
2018-12-14T15:27:08.657Z,16.23
2018-12-14T15:32:13.270Z,18.07
2018-12-14T15:37:17.807Z,20.83
2018-12-14T15:42:21.590Z,15.40
2018-12-14T15:47:26.064Z,17.23
2018-12-14T15:52:31.604Z,18.07
2018-12-14T15:57:35.781Z,18.37
2018-12-14T16:02:40.038Z,18.23
2018-12-14T16:07:44.177Z,18.00
2018-12-14T16:12:49.850Z,29.97
2018-12-14T16:17:54.779Z,17.20
2018-12-14T16:22:59.269Z,21.90
2018-12-14T16:28:03.430Z,20.70
2018-12-14T16:33:08.596Z,20.70
2018-12-14T16:38:12.775Z,15.83
2018-12-14T16:43:16.771Z,16.07
2018-12-14T16:48:21.236Z,15.83
2018-12-14T16:53:26.871Z,20.27
2018-12-14T16:58:31.369Z,19.23
2018-12-14T17:03:35.811Z,23.33
2018-12-14T17:08:39.641Z,17.70
2018-12-14T17:13:45.744Z,15.00
2018-12-14T17:18:50.252Z,17.20
2018-12-14T17:23:54.357Z,19.20
2018-12-14T17:28:58.324Z,15.37
2018-12-14T17:34:03.714Z,17.90
2018-12-14T17:39:09.005Z,17.87
2018-12-14T17:44:15.226Z,16.33
2018-12-14T17:49:20.914Z,17.70
2018-12-14T17:54:24.613Z,17.97
2018-12-14T17:59:28.630Z,17.33
2018-12-14T18:04:33.301Z,22.20
2018-12-14T18:09:37.289Z,15.60
2018-12-14T18:14:42.231Z,16.00
2018-12-14T18:19:48.057Z,13.37
2018-12-14T18:24:51.861Z,16.63
2018-12-14T18:29:55.613Z,13.70
2018-12-14T18:34:59.297Z,17.27
2018-12-14T18:40:03.197Z,14.80
2018-12-14T18:45:07.517Z,15.03
2018-12-14T18:50:11.287Z,14.00
2018-12-14T18:55:15.037Z,16.97
2018-12-14T19:00:18.722Z,15.13
2018-12-14T19:05:22.590Z,16.70
2018-12-14T19:10:26.298Z,16.33
2018-12-14T19:15:30.014Z,17.37
2018-12-14T19:20:33.738Z,16.07
2018-12-14T19:25:37.462Z,17.77
2018-12-14T19:30:41.205Z,13.90
2018-12-14T19:35:44.969Z,13.63
2018-12-14T19:40:48.821Z,16.53
2018-12-14T19:45:52.970Z,14.90
2018-12-14T19:50:56.912Z,16.97
2018-12-14T19:56:00.811Z,16.60
2018-12-14T20:01:04.943Z,14.43
2018-12-14T20:06:10.649Z,16.50
2018-12-14T20:11:14.831Z,15.77
2018-12-14T20:16:18.648Z,14.40
2018-12-14T20:21:23.073Z,17.57
2018-12-14T20:26:27.031Z,15.10
2018-12-14T20:31:31.239Z,18.60
2018-12-14T20:36:35.261Z,15.77
2018-12-14T20:41:39.054Z,15.17
2018-12-14T20:46:42.949Z,14.10
2018-12-14T20:51:46.746Z,15.13
2018-12-14T20:56:51.789Z,16.43
2018-12-14T21:01:55.769Z,14.37
2018-12-14T21:07:00.654Z,18.50
2018-12-14T21:12:04.492Z,13.90
2018-12-14T21:17:10.438Z,15.30
2018-12-14T21:22:15.369Z,14.17
2018-12-14T21:27:19.526Z,15.33
2018-12-14T21:32:25.063Z,16.40
2018-12-14T21:37:29.851Z,14.63
2018-12-14T21:42:34.405Z,15.83
2018-12-14T21:47:39.627Z,17.17
2018-12-14T21:52:43.596Z,15.93
2018-12-14T21:57:48.319Z,15.43
2018-12-14T22:02:52.267Z,17.20
2018-12-14T22:07:56.929Z,18.13
2018-12-14T22:13:00.827Z,15.70
2018-12-14T22:18:04.651Z,15.30
2018-12-14T22:23:08.662Z,16.57
2018-12-14T22:28:12.546Z,18.30
2018-12-14T22:33:16.395Z,15.23
2018-12-14T22:38:20.965Z,13.80
2018-12-14T22:43:24.957Z,14.13
2018-12-14T22:48:28.932Z,15.10
2018-12-14T22:53:32.665Z,14.50
2018-12-14T22:58:36.595Z,14.27
2018-12-14T23:03:40.478Z,14.90
2018-12-14T23:08:44.253Z,13.77
2018-12-14T23:13:48.204Z,15.43
2018-12-14T23:18:52.218Z,16.83
2018-12-14T23:23:56.196Z,18.00
2018-12-14T23:29:00.069Z,15.10
2018-12-14T23:34:04.313Z,15.47
2018-12-14T23:39:08.353Z,16.10
2018-12-14T23:44:14.478Z,17.57
2018-12-14T23:49:18.560Z,16.53
2018-12-14T23:54:22.934Z,17.17
2018-12-14T23:59:27.015Z,24.00
